Airfield :
LOGIN :

Register | Disclaimer

   EN    FR    IT 

 










Legend :    VFR   Marginal VFR   IFR   Intensive IFR   Very Intensive IFR
Visi :
Ceiling :
>= 8 km
>= 3000ft
5 to 8 km
1000 to 3000 ft
1500m to 5 km
500 to 1000 ft
800 to 1500m
200 to 500 ft
< 800m
< 200 ft
Symbols :   Thunderstorms  Fog  Heavy snow  Heavy precipitations  Wind > 20 kt
SIGMETs :     Misc.  Thunderstorms  Icing  Turbulence  Mountain Waves  Volcanic Ashes







- Airport Elevation : 1989 ft
- IATA code : KLV


LKKV - Karlovy Vary

CURRENT METAR :
  • 200900Z 21005KT 180V260 9999 BKN013 M01/M02 Q1007 R29/690395

EXPIRED METARs :
  • 200830Z 21004KT 180V240 2500 -SN BKN013 BKN020 M01/M03 Q1007 R29/690395
  • 200800Z 22004KT 190V260 5000 -SN BKN036 M01/M03 Q1007 R29/690395
  • 200730Z 21004KT 180V250 9999 -SN FEW015 BKN043 M02/M03 Q1007 R29/690395
  • 200700Z 22004KT 9999 FEW013 M02/M03 Q1007 R29/690395
  • 200650Z 22004KT 9999 FEW012 SCT030 M02/M03 Q1007 R29/690395 RMK REG QNH 1004
  • 200641Z 22003KT 180V270 9999 SCT015 BKN026 M02/M03 Q1007 R29/////// RMK REG QNH 1004
  • 200630Z 21003KT 7000 3200N -SN SCT008 BKN013 M02/M03 Q1007 R29///////

TAF TAF LKKV
Valid from the 20 at 06:00 until the 21 at 12:00 UTC


200500Z 2006/2112 22005KT 9999 SCT030
TEMPO 2006/2016 3000 -SN BKN010
BECMG 2014/2016 13006KT
BECMG 2020/2023 VRB02KT 3000 -SN BKN007
PROB40
TEMPO 2023/2112 0600 SN OVC002
BECMG 2109/2111 30006KT
No reported NOTAMs for that airfield.



MET'MAP, your aeronautical weather chart ! - Copyright ORBIFLY December 2007 - Disclaimer

ORBIFLY MET'MAP TEAM :

Programming & Development : Alexandra Zaïnal
Concept & Development : Baudouin d'Aumeries
Co-Development & Prog : Marc-Olivier Méhu
Technical & hardware support : Manuel Goepfert

Contact : metmap@orbifly.com




SOURCES & CREDITS :

   NOAA